West Fork, AR (72774)

5:13 AM CST on February 13, 2016 (GMT -0600)
Hutch Mountain | | Change Station
CLOSE
Current Station
Personal Weather Station
Location: West Fork, AR
Elevation: 2211 ft
Nearby Weather Stations

Elev 2211 ft 35.91 °N, 94.10 °W | Updated 27 seconds ago

Mostly Cloudy
Mostly Cloudy
25.7 °F
Feels Like 15 °F
N
12.1
Wind Variable Wind from NE
Gusts 13.6 mph

Today
High -- | Low -- °F
--% Chance of Precip.
Yesterday
High -- | Low -- °F
Precip. -- in
Pressure 30.49 in
Visibility 10.0 miles
Clouds Clear
Windchill 15 °F
Dew Point 13 °F
Humidity 57%
Rainfall 0.00 in
Snow Depth Not available.
7:06 AM 5:55 PM
Waxing Crescent, 29% visible
METAR KFYV 131053Z AUTO 04005KT 10SM CLR M02/M09 A3047 RMK AO2 SLP325 T10171094
Pressure 30.49 in
Visibility 10.0 miles
Clouds Clear
Windchill 15 °F
Dew Point 13 °F
Humidity 57%
Rainfall 0.00 in
Snow Depth Not available.
7:06 AM 5:55 PM
Waxing Crescent, 29% visible
METAR KFYV 131053Z AUTO 04005KT 10SM CLR M02/M09 A3047 RMK AO2 SLP325 T10171094

10-Day Weather Forecast

Almanac

Astronomy

Feb. 13, 2016 Rise Set
Actual Time
Civil Twilight
Nautical Twilight
Astronomical Twilight
Moon
Length of Visible Light
Length of Day
Tomorrow will be .
, % of the Moon is Illuminated

Today's Extremes

State Highs State Lows

Community

WunderPhotos

Upload Photos

1,892,541 photos uploaded!

WunderBlog® & News

Nearby

Air Quality

  Air Quality AQ Index Pollutant
Not available.

Snow Depth

Station Depth Elevation

Earthquake Activity

City Distance Mag. Time & Date
Minimum magnitude displayed is 2.5.

Coastal Water Temperatures

Place Temperature

Stations

Nearby Weather Stations

Station Location Temp. Windchill Dew Point Humidity Wind Precip. Elev Updated Type
                   

Watches & Warnings

There are currently no watches in effect.